sensor_id;sensor_type;location;lat;lon;timestamp;pressure;altitude;pressure_sealevel;temperature;humidity
50867;BME280;36839;51.946;21.002;2022-07-29T00:02:18;100636.48;;;11.10;100.00
50867;BME280;36839;51.946;21.002;2022-07-29T00:04:46;100632.83;;;11.04;100.00
50867;BME280;36839;51.946;21.002;2022-07-29T00:07:15;100641.40;;;11.05;99.77
50867;BME280;36839;51.946;21.002;2022-07-29T00:09:42;100644.43;;;11.04;100.00
50867;BME280;36839;51.946;21.002;2022-07-29T00:12:13;100644.43;;;11.04;100.00
50867;BME280;36839;51.946;21.002;2022-07-29T00:14:42;100638.83;;;10.96;100.00
50867;BME280;36839;51.946;21.002;2022-07-29T00:17:11;100640.41;;;10.87;100.00
50867;BME280;36839;51.946;21.002;2022-07-29T00:19:41;100637.36;;;10.86;100.00
50867;BME280;36839;51.946;21.002;2022-07-29T00:22:12;100639.84;;;10.85;100.00
50867;BME280;36839;51.946;21.002;2022-07-29T00:24:38;100639.84;;;10.85;100.00
50867;BME280;36839;51.946;21.002;2022-07-29T00:27:09;100640.37;;;10.82;100.00
50867;BME280;36839;51.946;21.002;2022-07-29T00:29:37;100641.14;;;10.77;100.00
50867;BME280;36839;51.946;21.002;2022-07-29T00:32:12;100647.09;;;10.64;100.00
50867;BME280;36839;51.946;21.002;2022-07-29T00:34:39;100640.17;;;10.62;100.00
50867;BME280;36839;51.946;21.002;2022-07-29T00:37:24;100646.77;;;10.61;100.00
50867;BME280;36839;51.946;21.002;2022-07-29T00:39:54;100646.77;;;10.61;100.00
50867;BME280;36839;51.946;21.002;2022-07-29T00:42:20;100651.98;;;10.57;100.00
50867;BME280;36839;51.946;21.002;2022-07-29T00:44:51;100642.28;;;10.52;100.00
50867;BME280;36839;51.946;21.002;2022-07-29T00:47:24;100639.75;;;10.50;100.00
50867;BME280;36839;51.946;21.002;2022-07-29T00:49:52;100638.06;;;10.47;100.00
50867;BME280;36839;51.946;21.002;2022-07-29T00:52:18;100641.64;;;10.45;100.00
50867;BME280;36839;51.946;21.002;2022-07-29T00:54:45;100636.05;;;10.40;100.00
50867;BME280;36839;51.946;21.002;2022-07-29T00:57:14;100638.86;;;10.42;100.00
50867;BME280;36839;51.946;21.002;2022-07-29T00:59:42;100644.37;;;10.42;100.00
50867;BME280;36839;51.946;21.002;2022-07-29T01:02:10;100631.34;;;10.38;100.00
50867;BME280;36839;51.946;21.002;2022-07-29T01:04:39;100644.33;;;10.40;100.00
50867;BME280;36839;51.946;21.002;2022-07-29T01:07:08;100644.33;;;10.40;100.00
50867;BME280;36839;51.946;21.002;2022-07-29T01:09:42;100639.91;;;10.39;100.00
50867;BME280;36839;51.946;21.002;2022-07-29T01:12:10;100639.91;;;10.39;100.00
50867;BME280;36839;51.946;21.002;2022-07-29T01:14:40;100640.98;;;10.35;100.00
50867;BME280;36839;51.946;21.002;2022-07-29T01:17:14;100647.31;;;10.33;100.00
50867;BME280;36839;51.946;21.002;2022-07-29T01:25:30;100646.02;;;10.21;100.00
50867;BME280;36839;51.946;21.002;2022-07-29T01:30:50;100645.06;;;10.11;100.00
50867;BME280;36839;51.946;21.002;2022-07-29T01:33:19;100641.47;;;10.10;100.00
50867;BME280;36839;51.946;21.002;2022-07-29T01:36:16;100642.58;;;10.12;100.00
50867;BME280;36839;51.946;21.002;2022-07-29T01:38:38;100651.70;;;10.12;100.00
50867;BME280;36839;51.946;21.002;2022-07-29T01:41:10;100651.70;;;10.12;100.00
50867;BME280;36839;51.946;21.002;2022-07-29T01:43:46;100656.05;;;10.06;100.00
50867;BME280;36839;51.946;21.002;2022-07-29T01:46:19;100656.05;;;10.06;100.00
50867;BME280;36839;51.946;21.002;2022-07-29T01:48:53;100652.92;;;9.99;100.00
50867;BME280;36839;51.946;21.002;2022-07-29T01:51:25;100648.47;;;9.96;100.00
50867;BME280;36839;51.946;21.002;2022-07-29T01:56:42;100646.75;;;9.92;100.00
50867;BME280;36839;51.946;21.002;2022-07-29T01:59:11;100657.66;;;9.82;100.00
50867;BME280;36839;51.946;21.002;2022-07-29T02:01:45;100651.53;;;9.78;100.00
50867;BME280;36839;51.946;21.002;2022-07-29T02:04:17;100652.56;;;9.74;100.00
50867;BME280;36839;51.946;21.002;2022-07-29T02:06:49;100652.56;;;9.74;100.00
50867;BME280;36839;51.946;21.002;2022-07-29T02:09:20;100648.03;;;9.65;100.00
50867;BME280;36839;51.946;21.002;2022-07-29T02:11:53;100653.23;;;9.62;100.00
50867;BME280;36839;51.946;21.002;2022-07-29T02:14:26;100651.25;;;9.57;100.00
50867;BME280;36839;51.946;21.002;2022-07-29T02:17:04;100637.59;;;9.48;100.00
50867;BME280;36839;51.946;21.002;2022-07-29T02:19:38;100642.88;;;9.52;100.00
50867;BME280;36839;51.946;21.002;2022-07-29T02:22:08;100645.06;;;9.50;100.00
50867;BME280;36839;51.946;21.002;2022-07-29T02:24:36;100643.34;;;9.47;100.00
50867;BME280;36839;51.946;21.002;2022-07-29T02:27:11;100647.70;;;9.42;100.00
50867;BME280;36839;51.946;21.002;2022-07-29T02:29:42;100652.64;;;9.40;100.00
50867;BME280;36839;51.946;21.002;2022-07-29T02:32:13;100652.64;;;9.40;100.00
50867;BME280;36839;51.946;21.002;2022-07-29T02:34:46;100660.53;;;9.34;100.00
50867;BME280;36839;51.946;21.002;2022-07-29T02:37:16;100647.70;;;9.26;100.00
50867;BME280;36839;51.946;21.002;2022-07-29T02:39:48;100647.70;;;9.26;100.00
50867;BME280;36839;51.946;21.002;2022-07-29T02:42:17;100655.17;;;9.28;100.00
50867;BME280;36839;51.946;21.002;2022-07-29T02:44:49;100636.94;;;9.24;100.00
50867;BME280;36839;51.946;21.002;2022-07-29T02:47:36;100649.38;;;9.27;100.00
50867;BME280;36839;51.946;21.002;2022-07-29T02:50:17;100657.90;;;9.25;100.00
50867;BME280;36839;51.946;21.002;2022-07-29T02:52:44;100657.90;;;9.25;100.00
50867;BME280;36839;51.946;21.002;2022-07-29T02:55:22;100663.38;;;9.23;100.00
50867;BME280;36839;51.946;21.002;2022-07-29T03:00:32;100658.73;;;9.26;100.00
50867;BME280;36839;51.946;21.002;2022-07-29T03:02:58;100663.44;;;9.28;100.00
50867;BME280;36839;51.946;21.002;2022-07-29T03:05:26;100665.14;;;9.29;100.00
50867;BME280;36839;51.946;21.002;2022-07-29T03:07:58;100658.25;;;9.29;100.00
50867;BME280;36839;51.946;21.002;2022-07-29T03:10:32;100659.15;;;9.34;100.00
50867;BME280;36839;51.946;21.002;2022-07-29T03:13:01;100660.23;;;9.33;100.00
50867;BME280;36839;51.946;21.002;2022-07-29T03:15:31;100662.12;;;9.30;100.00
50867;BME280;36839;51.946;21.002;2022-07-29T03:18:00;100662.12;;;9.30;100.00
50867;BME280;36839;51.946;21.002;2022-07-29T03:20:28;100656.65;;;9.33;100.00
50867;BME280;36839;51.946;21.002;2022-07-29T03:22:56;100656.65;;;9.33;100.00
50867;BME280;36839;51.946;21.002;2022-07-29T03:25:24;100660.27;;;9.36;100.00
50867;BME280;36839;51.946;21.002;2022-07-29T03:27:54;100662.31;;;9.43;100.00
50867;BME280;36839;51.946;21.002;2022-07-29T03:30:24;100665.94;;;9.46;100.00
50867;BME280;36839;51.946;21.002;2022-07-29T03:32:56;100662.73;;;9.52;100.00
50867;BME280;36839;51.946;21.002;2022-07-29T03:35:24;100663.66;;;9.57;100.00
50867;BME280;36839;51.946;21.002;2022-07-29T03:37:50;100663.66;;;9.57;100.00
50867;BME280;36839;51.946;21.002;2022-07-29T03:40:28;100654.58;;;9.59;100.00
50867;BME280;36839;51.946;21.002;2022-07-29T03:42:57;100657.08;;;9.80;100.00
50867;BME280;36839;51.946;21.002;2022-07-29T03:45:26;100670.18;;;9.90;100.00
50867;BME280;36839;51.946;21.002;2022-07-29T03:47:59;100670.18;;;9.90;100.00
50867;BME280;36839;51.946;21.002;2022-07-29T03:50:32;100664.25;;;10.00;100.00
50867;BME280;36839;51.946;21.002;2022-07-29T03:53:01;100666.05;;;10.12;100.00
50867;BME280;36839;51.946;21.002;2022-07-29T03:55:35;100658.41;;;10.19;100.00
50867;BME280;36839;51.946;21.002;2022-07-29T03:58:05;100660.87;;;10.37;100.00
50867;BME280;36839;51.946;21.002;2022-07-29T04:00:34;100667.66;;;10.51;100.00
50867;BME280;36839;51.946;21.002;2022-07-29T04:03:04;100667.27;;;10.65;100.00
50867;BME280;36839;51.946;21.002;2022-07-29T04:05:35;100666.27;;;10.76;100.00
50867;BME280;36839;51.946;21.002;2022-07-29T04:08:03;100667.75;;;10.86;100.00
50867;BME280;36839;51.946;21.002;2022-07-29T04:10:30;100670.87;;;10.95;100.00
50867;BME280;36839;51.946;21.002;2022-07-29T04:13:03;100669.31;;;11.04;100.00
50867;BME280;36839;51.946;21.002;2022-07-29T04:15:33;100669.31;;;11.04;100.00
50867;BME280;36839;51.946;21.002;2022-07-29T04:18:02;100660.52;;;11.09;100.00
50867;BME280;36839;51.946;21.002;2022-07-29T04:20:33;100676.11;;;11.23;100.00
50867;BME280;36839;51.946;21.002;2022-07-29T04:23:04;100683.19;;;11.43;100.00
50867;BME280;36839;51.946;21.002;2022-07-29T04:25:33;100672.48;;;11.55;100.00
50867;BME280;36839;51.946;21.002;2022-07-29T04:28:04;100672.48;;;11.55;100.00
50867;BME280;36839;51.946;21.002;2022-07-29T04:30:35;100672.86;;;11.66;100.00
50867;BME280;36839;51.946;21.002;2022-07-29T04:33:07;100662.12;;;11.77;100.00
50867;BME280;36839;51.946;21.002;2022-07-29T04:35:37;100666.75;;;12.11;100.00
50867;BME280;36839;51.946;21.002;2022-07-29T04:38:08;100666.75;;;12.11;100.00
50867;BME280;36839;51.946;21.002;2022-07-29T04:40:34;100673.83;;;12.44;100.00
50867;BME280;36839;51.946;21.002;2022-07-29T04:43:03;100673.83;;;12.44;100.00
50867;BME280;36839;51.946;21.002;2022-07-29T04:45:30;100662.55;;;12.74;100.00
50867;BME280;36839;51.946;21.002;2022-07-29T04:47:56;100678.38;;;12.96;100.00
50867;BME280;36839;51.946;21.002;2022-07-29T04:50:26;100676.20;;;13.11;100.00
50867;BME280;36839;51.946;21.002;2022-07-29T04:52:54;100676.20;;;13.11;100.00
50867;BME280;36839;51.946;21.002;2022-07-29T04:55:25;100682.61;;;13.42;100.00
50867;BME280;36839;51.946;21.002;2022-07-29T04:57:54;100682.61;;;13.42;100.00
50867;BME280;36839;51.946;21.002;2022-07-29T05:00:20;100695.09;;;13.60;100.00
50867;BME280;36839;51.946;21.002;2022-07-29T05:02:53;100691.16;;;13.94;100.00
50867;BME280;36839;51.946;21.002;2022-07-29T05:05:21;100691.16;;;13.94;100.00
50867;BME280;36839;51.946;21.002;2022-07-29T05:07:51;100697.99;;;14.27;100.00
50867;BME280;36839;51.946;21.002;2022-07-29T05:10:20;100691.55;;;14.39;100.00
50867;BME280;36839;51.946;21.002;2022-07-29T05:12:49;100693.49;;;14.51;100.00
50867;BME280;36839;51.946;21.002;2022-07-29T05:15:19;100693.49;;;14.51;100.00
50867;BME280;36839;51.946;21.002;2022-07-29T05:17:48;100693.63;;;14.75;100.00
50867;BME280;36839;51.946;21.002;2022-07-29T05:20:16;100693.63;;;14.75;100.00
50867;BME280;36839;51.946;21.002;2022-07-29T05:22:47;100695.23;;;14.89;100.00
50867;BME280;36839;51.946;21.002;2022-07-29T05:25:15;100697.63;;;15.03;100.00
50867;BME280;36839;51.946;21.002;2022-07-29T05:27:46;100697.56;;;15.16;100.00
50867;BME280;36839;51.946;21.002;2022-07-29T05:30:14;100697.99;;;15.31;100.00
50867;BME280;36839;51.946;21.002;2022-07-29T05:32:43;100693.14;;;15.44;100.00
50867;BME280;36839;51.946;21.002;2022-07-29T05:35:16;100687.12;;;15.68;100.00
50867;BME280;36839;51.946;21.002;2022-07-29T05:37:43;100685.06;;;15.79;100.00
50867;BME280;36839;51.946;21.002;2022-07-29T05:40:14;100685.06;;;15.79;100.00
50867;BME280;36839;51.946;21.002;2022-07-29T05:42:42;100674.64;;;15.90;100.00
50867;BME280;36839;51.946;21.002;2022-07-29T05:45:13;100678.44;;;15.99;99.94
50867;BME280;36839;51.946;21.002;2022-07-29T05:47:42;100679.68;;;16.14;99.16
50867;BME280;36839;51.946;21.002;2022-07-29T05:50:13;100681.34;;;16.15;97.91
50867;BME280;36839;51.946;21.002;2022-07-29T05:52:44;100682.88;;;16.26;98.19
50867;BME280;36839;51.946;21.002;2022-07-29T05:55:12;100682.88;;;16.26;98.19
50867;BME280;36839;51.946;21.002;2022-07-29T05:57:40;100688.32;;;16.37;97.13
50867;BME280;36839;51.946;21.002;2022-07-29T06:00:11;100680.73;;;16.64;96.56
50867;BME280;36839;51.946;21.002;2022-07-29T06:02:41;100680.56;;;16.79;95.51
50867;BME280;36839;51.946;21.002;2022-07-29T06:05:08;100681.76;;;16.92;95.65
50867;BME280;36839;51.946;21.002;2022-07-29T06:07:35;100681.76;;;16.92;95.65
50867;BME280;36839;51.946;21.002;2022-07-29T06:10:05;100675.81;;;17.14;93.61
50867;BME280;36839;51.946;21.002;2022-07-29T06:12:36;100674.81;;;17.27;93.24
50867;BME280;36839;51.946;21.002;2022-07-29T06:15:09;100674.95;;;17.35;91.53
50867;BME280;36839;51.946;21.002;2022-07-29T06:17:39;100674.95;;;17.35;91.53
50867;BME280;36839;51.946;21.002;2022-07-29T06:20:06;100674.41;;;17.50;92.90
50867;BME280;36839;51.946;21.002;2022-07-29T06:22:34;100679.59;;;17.75;91.17
50867;BME280;36839;51.946;21.002;2022-07-29T06:25:04;100679.59;;;17.75;91.17
50867;BME280;36839;51.946;21.002;2022-07-29T06:27:33;100673.81;;;17.99;89.42
50867;BME280;36839;51.946;21.002;2022-07-29T06:30:03;100673.81;;;17.99;89.42
50867;BME280;36839;51.946;21.002;2022-07-29T06:32:35;100680.45;;;18.17;86.57
50867;BME280;36839;51.946;21.002;2022-07-29T06:35:04;100680.45;;;18.17;86.57
50867;BME280;36839;51.946;21.002;2022-07-29T06:37:34;100673.80;;;18.29;85.68
50867;BME280;36839;51.946;21.002;2022-07-29T06:40:04;100673.80;;;18.29;85.68
50867;BME280;36839;51.946;21.002;2022-07-29T06:42:51;100674.51;;;18.35;85.10
50867;BME280;36839;51.946;21.002;2022-07-29T06:45:17;100672.84;;;18.61;85.21
50867;BME280;36839;51.946;21.002;2022-07-29T06:47:45;100672.84;;;18.61;85.21
50867;BME280;36839;51.946;21.002;2022-07-29T06:50:14;100677.50;;;18.79;84.67
50867;BME280;36839;51.946;21.002;2022-07-29T06:52:46;100681.48;;;19.01;82.28
50867;BME280;36839;51.946;21.002;2022-07-29T06:55:12;100681.48;;;19.01;82.28
50867;BME280;36839;51.946;21.002;2022-07-29T06:57:40;100687.05;;;19.15;82.65
50867;BME280;36839;51.946;21.002;2022-07-29T07:00:08;100685.08;;;19.37;81.40
50867;BME280;36839;51.946;21.002;2022-07-29T07:02:38;100688.84;;;19.44;78.84
50867;BME280;36839;51.946;21.002;2022-07-29T07:05:07;100688.95;;;19.50;78.72
50867;BME280;36839;51.946;21.002;2022-07-29T07:07:36;100688.95;;;19.50;78.72
50867;BME280;36839;51.946;21.002;2022-07-29T07:10:04;100679.62;;;19.66;78.61
50867;BME280;36839;51.946;21.002;2022-07-29T07:12:32;100674.75;;;19.80;78.88
50867;BME280;36839;51.946;21.002;2022-07-29T07:14:59;100679.91;;;19.87;78.24
50867;BME280;36839;51.946;21.002;2022-07-29T07:17:28;100670.30;;;19.90;77.52
50867;BME280;36839;51.946;21.002;2022-07-29T07:19:58;100670.30;;;19.90;77.52
50867;BME280;36839;51.946;21.002;2022-07-29T07:22:29;100677.98;;;19.96;76.76
50867;BME280;36839;51.946;21.002;2022-07-29T07:24:55;100670.11;;;20.07;77.80
50867;BME280;36839;51.946;21.002;2022-07-29T07:27:25;100677.85;;;20.21;75.87
50867;BME280;36839;51.946;21.002;2022-07-29T07:29:56;100669.55;;;20.36;76.05
50867;BME280;36839;51.946;21.002;2022-07-29T07:32:26;100672.28;;;20.49;75.60
50867;BME280;36839;51.946;21.002;2022-07-29T07:34:56;100672.28;;;20.49;75.60
50867;BME280;36839;51.946;21.002;2022-07-29T07:37:26;100678.13;;;20.79;72.42
50867;BME280;36839;51.946;21.002;2022-07-29T07:39:56;100676.31;;;20.92;72.10
50867;BME280;36839;51.946;21.002;2022-07-29T07:42:25;100674.58;;;20.93;70.31
50867;BME280;36839;51.946;21.002;2022-07-29T07:44:55;100680.87;;;20.99;70.90
50867;BME280;36839;51.946;21.002;2022-07-29T07:47:24;100678.74;;;21.04;70.98
50867;BME280;36839;51.946;21.002;2022-07-29T07:49:56;100675.36;;;21.14;69.75
50867;BME280;36839;51.946;21.002;2022-07-29T07:52:26;100678.41;;;21.23;69.27
50867;BME280;36839;51.946;21.002;2022-07-29T07:54:55;100678.41;;;21.23;69.27
50867;BME280;36839;51.946;21.002;2022-07-29T07:57:26;100674.20;;;21.32;67.62
50867;BME280;36839;51.946;21.002;2022-07-29T07:59:52;100689.02;;;21.44;67.82
50867;BME280;36839;51.946;21.002;2022-07-29T08:02:21;100681.80;;;21.49;66.11
50867;BME280;36839;51.946;21.002;2022-07-29T08:04:49;100684.79;;;21.52;66.04
50867;BME280;36839;51.946;21.002;2022-07-29T08:07:19;100691.11;;;21.73;65.35
50867;BME280;36839;51.946;21.002;2022-07-29T08:09:47;100691.83;;;21.84;63.63
50867;BME280;36839;51.946;21.002;2022-07-29T08:12:15;100686.91;;;21.96;62.26
50867;BME280;36839;51.946;21.002;2022-07-29T08:14:42;100692.95;;;22.09;62.80
50867;BME280;36839;51.946;21.002;2022-07-29T08:17:12;100696.22;;;22.20;62.27
50867;BME280;36839;51.946;21.002;2022-07-29T08:19:38;100682.63;;;22.22;59.73
50867;BME280;36839;51.946;21.002;2022-07-29T08:22:08;100682.63;;;22.22;59.73
50867;BME280;36839;51.946;21.002;2022-07-29T08:24:40;100686.09;;;22.28;59.91
50867;BME280;36839;51.946;21.002;2022-07-29T08:27:15;100677.23;;;22.46;59.74
50867;BME280;36839;51.946;21.002;2022-07-29T08:29:45;100675.67;;;22.58;57.82
50867;BME280;36839;51.946;21.002;2022-07-29T08:32:13;100675.67;;;22.58;57.82
50867;BME280;36839;51.946;21.002;2022-07-29T08:34:41;100672.64;;;22.77;59.57
50867;BME280;36839;51.946;21.002;2022-07-29T08:37:09;100673.69;;;22.88;59.69
50867;BME280;36839;51.946;21.002;2022-07-29T08:39:39;100673.69;;;22.88;59.69
50867;BME280;36839;51.946;21.002;2022-07-29T08:42:09;100676.73;;;23.09;59.37
50867;BME280;36839;51.946;21.002;2022-07-29T08:44:42;100676.67;;;23.18;56.44
50867;BME280;36839;51.946;21.002;2022-07-29T08:47:10;100684.63;;;23.37;57.42
50867;BME280;36839;51.946;21.002;2022-07-29T08:49:41;100684.63;;;23.37;57.42
50867;BME280;36839;51.946;21.002;2022-07-29T08:52:10;100681.07;;;23.55;54.33
50867;BME280;36839;51.946;21.002;2022-07-29T08:54:43;100678.23;;;23.76;54.06
50867;BME280;36839;51.946;21.002;2022-07-29T08:57:16;100678.34;;;23.73;51.46
50867;BME280;36839;51.946;21.002;2022-07-29T08:59:43;100678.34;;;23.73;51.46
50867;BME280;36839;51.946;21.002;2022-07-29T09:02:18;100678.40;;;23.91;53.34
50867;BME280;36839;51.946;21.002;2022-07-29T09:04:43;100679.72;;;24.00;50.64
50867;BME280;36839;51.946;21.002;2022-07-29T09:07:14;100676.79;;;24.09;50.75
50867;BME280;36839;51.946;21.002;2022-07-29T09:09:42;100676.79;;;24.09;50.75
50867;BME280;36839;51.946;21.002;2022-07-29T09:12:10;100667.40;;;24.17;50.88
50867;BME280;36839;51.946;21.002;2022-07-29T09:14:43;100666.15;;;24.45;50.98
50867;BME280;36839;51.946;21.002;2022-07-29T09:17:15;100656.84;;;24.57;48.12
50867;BME280;36839;51.946;21.002;2022-07-29T09:19:44;100659.53;;;24.59;47.50
50867;BME280;36839;51.946;21.002;2022-07-29T09:22:27;100656.23;;;24.69;49.40
50867;BME280;36839;51.946;21.002;2022-07-29T09:24:46;100661.13;;;24.91;49.70
50867;BME280;36839;51.946;21.002;2022-07-29T09:27:24;100661.13;;;24.91;49.70
50867;BME280;36839;51.946;21.002;2022-07-29T09:32:34;100653.87;;;24.84;48.42
50867;BME280;36839;51.946;21.002;2022-07-29T09:35:20;100654.55;;;24.87;47.11
50867;BME280;36839;51.946;21.002;2022-07-29T09:37:51;100654.55;;;24.87;47.11
50867;BME280;36839;51.946;21.002;2022-07-29T09:40:25;100655.61;;;24.88;46.94
50867;BME280;36839;51.946;21.002;2022-07-29T09:42:53;100656.79;;;24.87;47.65
50867;BME280;36839;51.946;21.002;2022-07-29T09:45:30;100644.98;;;24.97;46.32
50867;BME280;36839;51.946;21.002;2022-07-29T09:47:57;100644.98;;;24.97;46.32
50867;BME280;36839;51.946;21.002;2022-07-29T09:50:40;100658.09;;;25.02;49.27
50867;BME280;36839;51.946;21.002;2022-07-29T09:53:09;100658.09;;;25.02;49.27
50867;BME280;36839;51.946;21.002;2022-07-29T09:55:51;100648.75;;;25.14;45.08
50867;BME280;36839;51.946;21.002;2022-07-29T09:58:20;100648.75;;;25.14;45.08
50867;BME280;36839;51.946;21.002;2022-07-29T10:00:49;100647.30;;;25.20;46.65
50867;BME280;36839;51.946;21.002;2022-07-29T10:03:18;100644.23;;;25.19;46.62
50867;BME280;36839;51.946;21.002;2022-07-29T10:06:04;100635.98;;;25.20;46.19
50867;BME280;36839;51.946;21.002;2022-07-29T10:08:24;100634.02;;;25.14;46.99
50867;BME280;36839;51.946;21.002;2022-07-29T10:10:48;100631.66;;;25.10;45.19
50867;BME280;36839;51.946;21.002;2022-07-29T10:13:18;100628.14;;;25.13;46.78
50867;BME280;36839;51.946;21.002;2022-07-29T10:15:46;100621.75;;;25.22;46.05
50867;BME280;36839;51.946;21.002;2022-07-29T10:18:15;100616.34;;;25.39;46.50
50867;BME280;36839;51.946;21.002;2022-07-29T10:20:45;100614.45;;;25.43;46.39
50867;BME280;36839;51.946;21.002;2022-07-29T10:23:16;100614.45;;;25.65;45.71
50867;BME280;36839;51.946;21.002;2022-07-29T10:25:45;100606.61;;;25.58;43.57
50867;BME280;36839;51.946;21.002;2022-07-29T10:28:15;100606.61;;;25.58;43.57
50867;BME280;36839;51.946;21.002;2022-07-29T10:30:50;100609.70;;;25.75;44.21
50867;BME280;36839;51.946;21.002;2022-07-29T10:33:35;100622.09;;;26.08;41.91
50867;BME280;36839;51.946;21.002;2022-07-29T10:36:24;100622.09;;;26.08;41.91
50867;BME280;36839;51.946;21.002;2022-07-29T10:41:49;100624.78;;;26.27;42.15
50867;BME280;36839;51.946;21.002;2022-07-29T10:44:17;100611.74;;;26.06;42.18
50867;BME280;36839;51.946;21.002;2022-07-29T10:46:46;100606.01;;;26.12;41.14
50867;BME280;36839;51.946;21.002;2022-07-29T10:49:17;100606.01;;;26.12;41.14
50867;BME280;36839;51.946;21.002;2022-07-29T10:54:41;100606.19;;;25.72;40.44
50867;BME280;36839;51.946;21.002;2022-07-29T11:05:13;100596.55;;;26.30;41.73
50867;BME280;36839;51.946;21.002;2022-07-29T11:07:40;100596.55;;;26.30;41.73
50867;BME280;36839;51.946;21.002;2022-07-29T11:12:48;100593.80;;;26.50;41.06
50867;BME280;36839;51.946;21.002;2022-07-29T11:15:22;100593.80;;;26.50;42.46
50867;BME280;36839;51.946;21.002;2022-07-29T11:23:27;100593.72;;;26.46;41.74
50867;BME280;36839;51.946;21.002;2022-07-29T11:26:17;100590.16;;;26.59;41.84
50867;BME280;36839;51.946;21.002;2022-07-29T11:28:54;100580.80;;;26.39;41.07
50867;BME280;36839;51.946;21.002;2022-07-29T11:31:38;100586.56;;;26.11;42.14
50867;BME280;36839;51.946;21.002;2022-07-29T11:39:43;100582.34;;;26.36;40.98
50867;BME280;36839;51.946;21.002;2022-07-29T11:45:10;100577.27;;;26.36;42.46
50867;BME280;36839;51.946;21.002;2022-07-29T11:47:50;100580.69;;;26.61;41.89
50867;BME280;36839;51.946;21.002;2022-07-29T11:50:13;100579.02;;;26.85;41.16
50867;BME280;36839;51.946;21.002;2022-07-29T11:52:43;100577.53;;;26.82;40.39
50867;BME280;36839;51.946;21.002;2022-07-29T11:55:21;100571.39;;;26.80;40.89
50867;BME280;36839;51.946;21.002;2022-07-29T11:57:57;100571.39;;;26.80;40.89
50867;BME280;36839;51.946;21.002;2022-07-29T12:00:39;100570.61;;;27.18;41.48
50867;BME280;36839;51.946;21.002;2022-07-29T12:03:10;100570.61;;;27.18;41.48
50867;BME280;36839;51.946;21.002;2022-07-29T12:05:44;100575.91;;;27.10;39.58
50867;BME280;36839;51.946;21.002;2022-07-29T12:08:14;100570.34;;;26.68;40.54
50867;BME280;36839;51.946;21.002;2022-07-29T12:10:41;100570.70;;;26.57;40.17
50867;BME280;36839;51.946;21.002;2022-07-29T12:13:12;100573.69;;;26.55;40.80
50867;BME280;36839;51.946;21.002;2022-07-29T12:15:41;100563.73;;;26.19;41.23
50867;BME280;36839;51.946;21.002;2022-07-29T12:18:20;100570.83;;;26.29;41.13
50867;BME280;36839;51.946;21.002;2022-07-29T12:20:47;100564.35;;;26.29;41.34
50867;BME280;36839;51.946;21.002;2022-07-29T12:23:16;100561.74;;;26.30;41.46
50867;BME280;36839;51.946;21.002;2022-07-29T12:25:50;100561.74;;;26.30;41.46
50867;BME280;36839;51.946;21.002;2022-07-29T12:28:16;100562.06;;;26.34;41.90
50867;BME280;36839;51.946;21.002;2022-07-29T12:30:47;100569.79;;;26.28;41.34
50867;BME280;36839;51.946;21.002;2022-07-29T12:33:18;100556.92;;;26.56;40.78
50867;BME280;36839;51.946;21.002;2022-07-29T12:35:50;100550.95;;;26.80;40.98
50867;BME280;36839;51.946;21.002;2022-07-29T12:38:20;100557.25;;;27.09;42.29
50867;BME280;36839;51.946;21.002;2022-07-29T12:40:49;100552.70;;;27.23;41.03
50867;BME280;36839;51.946;21.002;2022-07-29T12:43:25;100550.46;;;27.23;38.78
50867;BME280;36839;51.946;21.002;2022-07-29T12:45:52;100550.46;;;27.23;38.78
50867;BME280;36839;51.946;21.002;2022-07-29T12:51:03;100551.63;;;27.64;37.39
50867;BME280;36839;51.946;21.002;2022-07-29T12:53:31;100551.63;;;27.64;37.39
50867;BME280;36839;51.946;21.002;2022-07-29T12:56:00;100548.36;;;27.62;37.11
50867;BME280;36839;51.946;21.002;2022-07-29T12:58:37;100529.99;;;27.56;37.72
50867;BME280;36839;51.946;21.002;2022-07-29T13:01:16;100529.99;;;27.56;37.72
50867;BME280;36839;51.946;21.002;2022-07-29T13:03:51;100533.73;;;27.60;37.88
50867;BME280;36839;51.946;21.002;2022-07-29T13:11:46;100535.34;;;27.94;36.89
50867;BME280;36839;51.946;21.002;2022-07-29T13:14:30;100533.84;;;28.26;34.63
50867;BME280;36839;51.946;21.002;2022-07-29T13:17:14;100533.84;;;28.26;34.63
50867;BME280;36839;51.946;21.002;2022-07-29T13:19:50;100531.66;;;28.16;35.64
50867;BME280;36839;51.946;21.002;2022-07-29T13:22:22;100531.66;;;28.16;35.64
50867;BME280;36839;51.946;21.002;2022-07-29T13:24:57;100533.78;;;28.09;35.46
50867;BME280;36839;51.946;21.002;2022-07-29T13:27:30;100522.63;;;28.50;35.48
50867;BME280;36839;51.946;21.002;2022-07-29T13:30:00;100522.63;;;28.50;35.48
50867;BME280;36839;51.946;21.002;2022-07-29T13:32:33;100519.39;;;28.95;35.49
50867;BME280;36839;51.946;21.002;2022-07-29T13:35:06;100524.97;;;29.01;33.20
50867;BME280;36839;51.946;21.002;2022-07-29T13:37:40;100518.58;;;28.94;33.90
50867;BME280;36839;51.946;21.002;2022-07-29T13:40:10;100526.62;;;29.06;33.49
50867;BME280;36839;51.946;21.002;2022-07-29T13:42:38;100526.62;;;29.06;33.49
50867;BME280;36839;51.946;21.002;2022-07-29T13:45:06;100511.56;;;28.88;33.02
50867;BME280;36839;51.946;21.002;2022-07-29T13:47:35;100508.14;;;28.59;34.40
50867;BME280;36839;51.946;21.002;2022-07-29T13:50:07;100508.14;;;28.59;34.40
50867;BME280;36839;51.946;21.002;2022-07-29T13:52:35;100509.02;;;28.23;34.54